sensor_id;sensor_type;location;lat;lon;timestamp;pressure;altitude;pressure_sealevel;temperature;humidity
46682;BME280;34101;53.430;-2.224;2023-05-25T00:00:16;102429.35;;;17.56;59.95
46682;BME280;34101;53.430;-2.224;2023-05-25T00:02:44;102430.79;;;17.57;59.83
46682;BME280;34101;53.430;-2.224;2023-05-25T00:05:12;102432.24;;;17.48;60.01
46682;BME280;34101;53.430;-2.224;2023-05-25T00:07:40;102434.32;;;17.49;60.35
46682;BME280;34101;53.430;-2.224;2023-05-25T00:10:08;102434.15;;;17.44;60.41
46682;BME280;34101;53.430;-2.224;2023-05-25T00:12:36;102433.66;;;17.48;60.39
46682;BME280;34101;53.430;-2.224;2023-05-25T00:15:03;102436.07;;;17.47;60.12
46682;BME280;34101;53.430;-2.224;2023-05-25T00:17:31;102438.68;;;17.43;60.66
46682;BME280;34101;53.430;-2.224;2023-05-25T00:19:59;102437.66;;;17.39;60.62
46682;BME280;34101;53.430;-2.224;2023-05-25T00:22:27;102438.23;;;17.35;60.56
46682;BME280;34101;53.430;-2.224;2023-05-25T00:24:54;102443.32;;;17.33;61.01
46682;BME280;34101;53.430;-2.224;2023-05-25T00:27:23;102448.04;;;17.42;60.50
46682;BME280;34101;53.430;-2.224;2023-05-25T00:29:51;102452.25;;;17.42;60.72
46682;BME280;34101;53.430;-2.224;2023-05-25T00:32:19;102453.43;;;17.42;60.69
46682;BME280;34101;53.430;-2.224;2023-05-25T00:34:46;102452.90;;;17.46;60.71
46682;BME280;34101;53.430;-2.224;2023-05-25T00:37:14;102454.82;;;17.44;60.64
46682;BME280;34101;53.430;-2.224;2023-05-25T00:39:41;102452.24;;;17.31;60.89
46682;BME280;34101;53.430;-2.224;2023-05-25T00:42:09;102452.15;;;17.14;61.75
46682;BME280;34101;53.430;-2.224;2023-05-25T00:44:37;102451.62;;;17.29;61.45
46682;BME280;34101;53.430;-2.224;2023-05-25T00:47:06;102453.60;;;17.36;61.06
46682;BME280;34101;53.430;-2.224;2023-05-25T00:49:34;102452.36;;;17.44;60.73
46682;BME280;34101;53.430;-2.224;2023-05-25T00:52:01;102450.34;;;17.43;60.73
46682;BME280;34101;53.430;-2.224;2023-05-25T00:54:29;102450.33;;;17.44;60.85
46682;BME280;34101;53.430;-2.224;2023-05-25T00:57:00;102452.24;;;17.33;61.06
46682;BME280;34101;53.430;-2.224;2023-05-25T00:59:31;102452.35;;;17.30;61.22
46682;BME280;34101;53.430;-2.224;2023-05-25T01:02:02;102456.85;;;17.14;61.75
46682;BME280;34101;53.430;-2.224;2023-05-25T01:04:30;102458.34;;;17.15;61.71
46682;BME280;34101;53.430;-2.224;2023-05-25T01:07:02;102463.79;;;17.14;61.69
46682;BME280;34101;53.430;-2.224;2023-05-25T01:09:32;102463.43;;;17.09;61.80
46682;BME280;34101;53.430;-2.224;2023-05-25T01:12:01;102460.33;;;17.00;62.17
46682;BME280;34101;53.430;-2.224;2023-05-25T01:14:30;102458.77;;;16.98;62.25
46682;BME280;34101;53.430;-2.224;2023-05-25T01:16:58;102459.97;;;16.90;62.43
46682;BME280;34101;53.430;-2.224;2023-05-25T01:19:28;102459.63;;;16.94;62.45
46682;BME280;34101;53.430;-2.224;2023-05-25T01:22:03;102458.92;;;16.76;63.06
46682;BME280;34101;53.430;-2.224;2023-05-25T01:24:35;102458.96;;;16.57;63.78
46682;BME280;34101;53.430;-2.224;2023-05-25T01:27:08;102461.50;;;16.70;63.52
46682;BME280;34101;53.430;-2.224;2023-05-25T01:29:41;102465.83;;;16.78;63.30
46682;BME280;34101;53.430;-2.224;2023-05-25T01:32:10;102466.15;;;16.87;62.90
46682;BME280;34101;53.430;-2.224;2023-05-25T01:34:40;102466.76;;;16.80;63.29
46682;BME280;34101;53.430;-2.224;2023-05-25T01:37:09;102464.50;;;16.84;63.03
46682;BME280;34101;53.430;-2.224;2023-05-25T01:39:37;102465.64;;;16.79;63.11
46682;BME280;34101;53.430;-2.224;2023-05-25T01:42:04;102468.38;;;16.81;63.09
46682;BME280;34101;53.430;-2.224;2023-05-25T01:44:32;102468.19;;;16.83;62.85
46682;BME280;34101;53.430;-2.224;2023-05-25T01:47:04;102467.91;;;16.86;63.04
46682;BME280;34101;53.430;-2.224;2023-05-25T01:49:40;102467.41;;;16.93;62.71
46682;BME280;34101;53.430;-2.224;2023-05-25T01:52:16;102470.38;;;16.94;62.47
46682;BME280;34101;53.430;-2.224;2023-05-25T01:54:50;102465.44;;;16.86;62.59
46682;BME280;34101;53.430;-2.224;2023-05-25T01:57:19;102462.44;;;16.72;63.38
46682;BME280;34101;53.430;-2.224;2023-05-25T01:59:51;102461.13;;;16.68;63.50
46682;BME280;34101;53.430;-2.224;2023-05-25T02:02:21;102460.13;;;16.69;63.56
46682;BME280;34101;53.430;-2.224;2023-05-25T02:04:48;102461.49;;;16.57;63.88
46682;BME280;34101;53.430;-2.224;2023-05-25T02:07:15;102462.94;;;16.61;63.70
46682;BME280;34101;53.430;-2.224;2023-05-25T02:09:43;102465.89;;;16.65;63.67
46682;BME280;34101;53.430;-2.224;2023-05-25T02:12:10;102465.65;;;16.75;63.33
46682;BME280;34101;53.430;-2.224;2023-05-25T02:14:37;102469.79;;;16.80;63.15
46682;BME280;34101;53.430;-2.224;2023-05-25T02:17:05;102472.14;;;16.87;62.93
46682;BME280;34101;53.430;-2.224;2023-05-25T02:19:33;102475.48;;;16.90;62.88
46682;BME280;34101;53.430;-2.224;2023-05-25T02:22:01;102482.24;;;16.97;62.60
46682;BME280;34101;53.430;-2.224;2023-05-25T02:24:33;102479.31;;;16.99;62.67
46682;BME280;34101;53.430;-2.224;2023-05-25T02:27:00;102478.40;;;17.04;62.40
46682;BME280;34101;53.430;-2.224;2023-05-25T02:29:27;102480.02;;;17.05;62.27
46682;BME280;34101;53.430;-2.224;2023-05-25T02:31:55;102480.18;;;17.01;62.39
46682;BME280;34101;53.430;-2.224;2023-05-25T02:34:22;102481.40;;;17.05;62.39
46682;BME280;34101;53.430;-2.224;2023-05-25T02:36:55;102482.62;;;17.09;62.15
46682;BME280;34101;53.430;-2.224;2023-05-25T02:39:22;102480.95;;;17.04;61.96
46682;BME280;34101;53.430;-2.224;2023-05-25T02:41:50;102480.05;;;16.96;62.59
46682;BME280;34101;53.430;-2.224;2023-05-25T02:44:17;102480.21;;;17.03;62.23
46682;BME280;34101;53.430;-2.224;2023-05-25T02:46:44;102480.43;;;17.04;62.12
46682;BME280;34101;53.430;-2.224;2023-05-25T02:49:12;102480.43;;;17.04;62.12
46682;BME280;34101;53.430;-2.224;2023-05-25T02:51:40;102478.81;;;17.05;62.00
46682;BME280;34101;53.430;-2.224;2023-05-25T02:54:07;102478.49;;;17.06;62.22
46682;BME280;34101;53.430;-2.224;2023-05-25T02:56:40;102478.86;;;17.08;61.72
46682;BME280;34101;53.430;-2.224;2023-05-25T02:59:07;102481.25;;;16.87;62.64
46682;BME280;34101;53.430;-2.224;2023-05-25T03:01:35;102483.69;;;16.91;62.31
46682;BME280;34101;53.430;-2.224;2023-05-25T03:04:07;102485.06;;;16.90;62.18
46682;BME280;34101;53.430;-2.224;2023-05-25T03:06:35;102485.59;;;16.85;62.16
46682;BME280;34101;53.430;-2.224;2023-05-25T03:09:02;102490.39;;;16.84;62.49
46682;BME280;34101;53.430;-2.224;2023-05-25T03:11:30;102490.31;;;16.88;62.49
46682;BME280;34101;53.430;-2.224;2023-05-25T03:13:57;102491.03;;;16.78;62.49
46682;BME280;34101;53.430;-2.224;2023-05-25T03:16:25;102492.87;;;16.70;63.01
46682;BME280;34101;53.430;-2.224;2023-05-25T03:18:52;102493.03;;;16.72;63.06
46682;BME280;34101;53.430;-2.224;2023-05-25T03:21:20;102494.19;;;16.76;62.99
46682;BME280;34101;53.430;-2.224;2023-05-25T03:23:47;102492.39;;;16.81;62.81
46682;BME280;34101;53.430;-2.224;2023-05-25T03:26:14;102495.34;;;16.76;62.99
46682;BME280;34101;53.430;-2.224;2023-05-25T03:28:42;102495.12;;;16.78;62.76
46682;BME280;34101;53.430;-2.224;2023-05-25T03:31:09;102494.70;;;16.70;63.11
46682;BME280;34101;53.430;-2.224;2023-05-25T03:33:37;102495.59;;;16.65;63.49
46682;BME280;34101;53.430;-2.224;2023-05-25T03:36:06;102495.44;;;16.64;63.30
46682;BME280;34101;53.430;-2.224;2023-05-25T03:38:33;102499.23;;;16.55;63.75
46682;BME280;34101;53.430;-2.224;2023-05-25T03:41:01;102500.06;;;16.55;63.72
46682;BME280;34101;53.430;-2.224;2023-05-25T03:43:28;102495.22;;;16.56;63.61
46682;BME280;34101;53.430;-2.224;2023-05-25T03:45:56;102497.13;;;16.55;63.85
46682;BME280;34101;53.430;-2.224;2023-05-25T03:48:23;102497.47;;;16.56;63.70
46682;BME280;34101;53.430;-2.224;2023-05-25T03:50:50;102498.54;;;16.54;63.96
46682;BME280;34101;53.430;-2.224;2023-05-25T03:53:23;102500.19;;;16.62;63.78
46682;BME280;34101;53.430;-2.224;2023-05-25T03:55:51;102502.43;;;16.56;64.05
46682;BME280;34101;53.430;-2.224;2023-05-25T03:58:18;102502.05;;;16.50;64.34
46682;BME280;34101;53.430;-2.224;2023-05-25T04:00:45;102503.43;;;16.52;64.08
46682;BME280;34101;53.430;-2.224;2023-05-25T04:03:13;102503.83;;;16.53;63.98
46682;BME280;34101;53.430;-2.224;2023-05-25T04:05:40;102508.41;;;16.50;64.22
46682;BME280;34101;53.430;-2.224;2023-05-25T04:08:15;102509.94;;;16.45;64.25
46682;BME280;34101;53.430;-2.224;2023-05-25T04:10:42;102513.59;;;16.41;64.61
46682;BME280;34101;53.430;-2.224;2023-05-25T04:13:09;102517.48;;;16.40;64.61
46682;BME280;34101;53.430;-2.224;2023-05-25T04:15:37;102518.49;;;16.38;64.89
46682;BME280;34101;53.430;-2.224;2023-05-25T04:18:04;102520.35;;;16.41;64.43
46682;BME280;34101;53.430;-2.224;2023-05-25T04:20:32;102521.29;;;16.34;64.90
46682;BME280;34101;53.430;-2.224;2023-05-25T04:23:00;102524.12;;;16.35;64.79
46682;BME280;34101;53.430;-2.224;2023-05-25T04:25:27;102527.58;;;16.34;64.99
46682;BME280;34101;53.430;-2.224;2023-05-25T04:27:54;102531.71;;;16.33;65.12
46682;BME280;34101;53.430;-2.224;2023-05-25T04:30:22;102535.90;;;16.37;65.14
46682;BME280;34101;53.430;-2.224;2023-05-25T04:32:49;102536.33;;;16.36;65.13
46682;BME280;34101;53.430;-2.224;2023-05-25T04:35:16;102535.99;;;16.33;65.14
46682;BME280;34101;53.430;-2.224;2023-05-25T04:37:44;102541.15;;;16.28;65.30
46682;BME280;34101;53.430;-2.224;2023-05-25T04:40:11;102541.39;;;16.26;65.47
46682;BME280;34101;53.430;-2.224;2023-05-25T04:42:39;102540.86;;;16.26;65.59
46682;BME280;34101;53.430;-2.224;2023-05-25T04:45:07;102542.60;;;16.29;65.36
46682;BME280;34101;53.430;-2.224;2023-05-25T04:47:35;102544.32;;;16.25;65.76
46682;BME280;34101;53.430;-2.224;2023-05-25T04:50:03;102548.62;;;16.26;65.69
46682;BME280;34101;53.430;-2.224;2023-05-25T04:52:30;102547.89;;;16.22;65.83
46682;BME280;34101;53.430;-2.224;2023-05-25T04:54:57;102551.71;;;16.16;66.31
46682;BME280;34101;53.430;-2.224;2023-05-25T04:57:25;102554.37;;;16.22;66.10
46682;BME280;34101;53.430;-2.224;2023-05-25T04:59:52;102560.42;;;16.26;65.89
46682;BME280;34101;53.430;-2.224;2023-05-25T05:02:20;102564.86;;;16.24;66.13
46682;BME280;34101;53.430;-2.224;2023-05-25T05:04:47;102568.19;;;16.31;65.87
46682;BME280;34101;53.430;-2.224;2023-05-25T05:07:14;102564.30;;;16.31;65.90
46682;BME280;34101;53.430;-2.224;2023-05-25T05:09:42;102561.38;;;16.34;65.94
46682;BME280;34101;53.430;-2.224;2023-05-25T05:12:09;102561.67;;;16.25;66.23
46682;BME280;34101;53.430;-2.224;2023-05-25T05:14:37;102565.08;;;16.30;65.95
46682;BME280;34101;53.430;-2.224;2023-05-25T05:17:04;102567.19;;;16.35;65.63
46682;BME280;34101;53.430;-2.224;2023-05-25T05:19:32;102566.65;;;16.33;65.93
46682;BME280;34101;53.430;-2.224;2023-05-25T05:21:59;102569.22;;;16.30;66.12
46682;BME280;34101;53.430;-2.224;2023-05-25T05:24:27;102569.93;;;16.27;66.34
46682;BME280;34101;53.430;-2.224;2023-05-25T05:26:54;102571.41;;;16.31;66.20
46682;BME280;34101;53.430;-2.224;2023-05-25T05:29:21;102574.04;;;16.32;66.07
46682;BME280;34101;53.430;-2.224;2023-05-25T05:31:49;102575.36;;;16.33;66.08
46682;BME280;34101;53.430;-2.224;2023-05-25T05:34:21;102580.99;;;16.36;66.19
46682;BME280;34101;53.430;-2.224;2023-05-25T05:36:49;102580.81;;;16.42;66.09
46682;BME280;34101;53.430;-2.224;2023-05-25T05:39:16;102581.27;;;16.51;65.82
46682;BME280;34101;53.430;-2.224;2023-05-25T05:41:44;102585.18;;;16.51;65.84
46682;BME280;34101;53.430;-2.224;2023-05-25T05:44:11;102587.88;;;16.57;65.58
46682;BME280;34101;53.430;-2.224;2023-05-25T05:46:38;102592.83;;;16.60;65.40
46682;BME280;34101;53.430;-2.224;2023-05-25T05:49:06;102590.81;;;16.64;64.95
46682;BME280;34101;53.430;-2.224;2023-05-25T05:51:33;102590.27;;;16.66;65.25
46682;BME280;34101;53.430;-2.224;2023-05-25T05:54:01;102598.57;;;16.65;65.21
46682;BME280;34101;53.430;-2.224;2023-05-25T05:56:33;102603.54;;;16.69;64.89
46682;BME280;34101;53.430;-2.224;2023-05-25T05:59:01;102604.93;;;16.70;65.22
46682;BME280;34101;53.430;-2.224;2023-05-25T06:01:28;102602.05;;;16.75;65.09
46682;BME280;34101;53.430;-2.224;2023-05-25T06:03:56;102599.63;;;16.78;64.70
46682;BME280;34101;53.430;-2.224;2023-05-25T06:06:23;102602.91;;;16.75;65.00
46682;BME280;34101;53.430;-2.224;2023-05-25T06:08:51;102604.55;;;16.82;64.86
46682;BME280;34101;53.430;-2.224;2023-05-25T06:11:18;102604.58;;;16.88;64.91
46682;BME280;34101;53.430;-2.224;2023-05-25T06:13:45;102603.27;;;16.86;64.63
46682;BME280;34101;53.430;-2.224;2023-05-25T06:16:13;102604.26;;;16.92;64.76
46682;BME280;34101;53.430;-2.224;2023-05-25T06:18:40;102603.76;;;17.01;64.44
46682;BME280;34101;53.430;-2.224;2023-05-25T06:21:08;102602.04;;;17.03;64.57
46682;BME280;34101;53.430;-2.224;2023-05-25T06:23:35;102603.15;;;17.10;64.27
46682;BME280;34101;53.430;-2.224;2023-05-25T06:26:03;102607.53;;;17.03;64.40
46682;BME280;34101;53.430;-2.224;2023-05-25T06:28:31;102609.68;;;17.11;63.86
46682;BME280;34101;53.430;-2.224;2023-05-25T06:30:59;102609.01;;;17.14;63.90
46682;BME280;34101;53.430;-2.224;2023-05-25T06:33:27;102610.09;;;17.18;63.78
46682;BME280;34101;53.430;-2.224;2023-05-25T06:35:54;102608.38;;;17.12;63.71
46682;BME280;34101;53.430;-2.224;2023-05-25T06:38:21;102607.94;;;17.06;64.64
46682;BME280;34101;53.430;-2.224;2023-05-25T06:40:49;102601.83;;;17.12;64.18
46682;BME280;34101;53.430;-2.224;2023-05-25T06:43:16;102600.50;;;17.22;63.94
46682;BME280;34101;53.430;-2.224;2023-05-25T06:45:44;102599.88;;;17.35;63.60
46682;BME280;34101;53.430;-2.224;2023-05-25T06:48:11;102601.62;;;17.43;63.51
46682;BME280;34101;53.430;-2.224;2023-05-25T06:50:39;102596.70;;;17.47;63.16
46682;BME280;34101;53.430;-2.224;2023-05-25T06:53:06;102594.04;;;17.49;62.89
46682;BME280;34101;53.430;-2.224;2023-05-25T06:55:33;102600.75;;;17.48;62.86
46682;BME280;34101;53.430;-2.224;2023-05-25T06:58:00;102602.61;;;17.47;62.84
46682;BME280;34101;53.430;-2.224;2023-05-25T07:00:29;102604.60;;;17.53;62.69
46682;BME280;34101;53.430;-2.224;2023-05-25T07:02:56;102599.59;;;17.61;62.36
46682;BME280;34101;53.430;-2.224;2023-05-25T07:05:23;102602.39;;;17.73;62.34
46682;BME280;34101;53.430;-2.224;2023-05-25T07:07:51;102601.98;;;17.74;61.87
46682;BME280;34101;53.430;-2.224;2023-05-25T07:10:18;102599.90;;;17.35;63.07
46682;BME280;34101;53.430;-2.224;2023-05-25T07:12:46;102603.25;;;17.53;62.68
46682;BME280;34101;53.430;-2.224;2023-05-25T07:15:13;102605.79;;;17.69;61.86
46682;BME280;34101;53.430;-2.224;2023-05-25T07:17:40;102605.20;;;17.75;61.85
46682;BME280;34101;53.430;-2.224;2023-05-25T07:20:08;102608.11;;;17.89;61.73
46682;BME280;34101;53.430;-2.224;2023-05-25T07:22:35;102609.55;;;18.12;60.96
46682;BME280;34101;53.430;-2.224;2023-05-25T07:25:03;102613.17;;;17.90;60.88
46682;BME280;34101;53.430;-2.224;2023-05-25T07:27:35;102616.40;;;17.91;61.59
46682;BME280;34101;53.430;-2.224;2023-05-25T07:30:03;102613.38;;;18.11;61.02
46682;BME280;34101;53.430;-2.224;2023-05-25T07:32:31;102610.09;;;18.28;60.33
46682;BME280;34101;53.430;-2.224;2023-05-25T07:34:58;102613.58;;;18.50;60.25
46682;BME280;34101;53.430;-2.224;2023-05-25T07:37:26;102609.78;;;18.66;59.58
46682;BME280;34101;53.430;-2.224;2023-05-25T07:39:53;102608.96;;;19.13;58.12
46682;BME280;34101;53.430;-2.224;2023-05-25T07:42:21;102613.35;;;19.77;55.87
46682;BME280;34101;53.430;-2.224;2023-05-25T07:44:48;102617.09;;;20.77;53.39
46682;BME280;34101;53.430;-2.224;2023-05-25T07:47:16;102619.12;;;21.41;50.18
46682;BME280;34101;53.430;-2.224;2023-05-25T07:49:43;102617.62;;;21.55;49.87
46682;BME280;34101;53.430;-2.224;2023-05-25T07:52:11;102619.06;;;22.05;49.24
46682;BME280;34101;53.430;-2.224;2023-05-25T07:54:38;102619.30;;;22.86;46.12
46682;BME280;34101;53.430;-2.224;2023-05-25T07:57:05;102620.92;;;23.47;44.71
46682;BME280;34101;53.430;-2.224;2023-05-25T07:59:32;102620.14;;;23.75;43.63
46682;BME280;34101;53.430;-2.224;2023-05-25T08:02:00;102624.84;;;23.79;44.51
46682;BME280;34101;53.430;-2.224;2023-05-25T08:04:29;102627.55;;;24.00;43.15
46682;BME280;34101;53.430;-2.224;2023-05-25T08:06:56;102626.82;;;24.28;41.95
46682;BME280;34101;53.430;-2.224;2023-05-25T08:09:23;102628.59;;;24.54;40.82
46682;BME280;34101;53.430;-2.224;2023-05-25T08:11:51;102632.13;;;24.50;40.48
46682;BME280;34101;53.430;-2.224;2023-05-25T08:14:18;102630.71;;;25.66;38.38
46682;BME280;34101;53.430;-2.224;2023-05-25T08:16:45;102637.35;;;24.41;40.24
46682;BME280;34101;53.430;-2.224;2023-05-25T08:19:13;102631.53;;;25.37;38.46
46682;BME280;34101;53.430;-2.224;2023-05-25T08:21:40;102637.47;;;25.02;39.45
46682;BME280;34101;53.430;-2.224;2023-05-25T08:24:07;102640.41;;;25.20;39.29
46682;BME280;34101;53.430;-2.224;2023-05-25T08:26:35;102641.93;;;25.11;38.89
46682;BME280;34101;53.430;-2.224;2023-05-25T08:29:03;102643.20;;;24.65;39.80
46682;BME280;34101;53.430;-2.224;2023-05-25T08:31:31;102644.28;;;24.82;39.81
46682;BME280;34101;53.430;-2.224;2023-05-25T08:33:58;102645.72;;;24.57;39.60
46682;BME280;34101;53.430;-2.224;2023-05-25T08:36:26;102649.44;;;23.80;41.08
46682;BME280;34101;53.430;-2.224;2023-05-25T08:38:54;102644.17;;;24.15;40.58
46682;BME280;34101;53.430;-2.224;2023-05-25T08:41:21;102644.81;;;23.88;41.53
46682;BME280;34101;53.430;-2.224;2023-05-25T08:43:54;102644.71;;;24.05;40.98
46682;BME280;34101;53.430;-2.224;2023-05-25T08:46:28;102643.54;;;24.35;39.96
46682;BME280;34101;53.430;-2.224;2023-05-25T08:48:59;102643.49;;;24.96;38.73
46682;BME280;34101;53.430;-2.224;2023-05-25T08:51:34;102642.26;;;25.18;38.03
46682;BME280;34101;53.430;-2.224;2023-05-25T08:54:05;102641.98;;;26.17;35.84
46682;BME280;34101;53.430;-2.224;2023-05-25T08:56:37;102643.65;;;26.53;35.63
46682;BME280;34101;53.430;-2.224;2023-05-25T08:59:13;102638.80;;;26.26;35.40
46682;BME280;34101;53.430;-2.224;2023-05-25T09:01:45;102640.27;;;25.91;36.99
46682;BME280;34101;53.430;-2.224;2023-05-25T09:04:17;102637.69;;;26.35;35.78
46682;BME280;34101;53.430;-2.224;2023-05-25T09:06:44;102635.52;;;26.61;34.75
46682;BME280;34101;53.430;-2.224;2023-05-25T09:09:12;102638.49;;;26.18;35.35
46682;BME280;34101;53.430;-2.224;2023-05-25T09:11:39;102639.76;;;27.59;33.16
46682;BME280;34101;53.430;-2.224;2023-05-25T09:14:12;102641.97;;;28.45;31.49
46682;BME280;34101;53.430;-2.224;2023-05-25T09:16:40;102644.90;;;28.66;30.28
46682;BME280;34101;53.430;-2.224;2023-05-25T09:19:08;102645.20;;;28.64;31.03
46682;BME280;34101;53.430;-2.224;2023-05-25T09:21:36;102649.66;;;28.09;31.95
46682;BME280;34101;53.430;-2.224;2023-05-25T09:24:04;102650.57;;;29.02;30.16
46682;BME280;34101;53.430;-2.224;2023-05-25T09:26:32;102645.24;;;29.55;28.88
46682;BME280;34101;53.430;-2.224;2023-05-25T09:29:00;102641.55;;;29.60;28.16
46682;BME280;34101;53.430;-2.224;2023-05-25T09:31:27;102643.97;;;28.25;30.98
46682;BME280;34101;53.430;-2.224;2023-05-25T09:33:55;102644.89;;;28.29;30.52
46682;BME280;34101;53.430;-2.224;2023-05-25T09:36:23;102641.17;;;27.01;32.87
46682;BME280;34101;53.430;-2.224;2023-05-25T09:38:52;102642.47;;;26.34;33.86
46682;BME280;34101;53.430;-2.224;2023-05-25T09:41:20;102646.55;;;25.38;35.78
46682;BME280;34101;53.430;-2.224;2023-05-25T09:43:47;102652.15;;;25.07;36.31
46682;BME280;34101;53.430;-2.224;2023-05-25T09:46:14;102650.42;;;25.33;35.65
46682;BME280;34101;53.430;-2.224;2023-05-25T09:48:42;102646.04;;;25.43;36.03
46682;BME280;34101;53.430;-2.224;2023-05-25T09:51:10;102644.93;;;26.66;33.38
46682;BME280;34101;53.430;-2.224;2023-05-25T09:53:37;102642.14;;;26.98;33.01
46682;BME280;34101;53.430;-2.224;2023-05-25T09:56:05;102640.87;;;27.78;31.70
46682;BME280;34101;53.430;-2.224;2023-05-25T09:58:32;102638.99;;;27.66;32.58
46682;BME280;34101;53.430;-2.224;2023-05-25T10:01:00;102642.09;;;26.67;34.12
46682;BME280;34101;53.430;-2.224;2023-05-25T10:03:27;102640.76;;;26.74;34.04
46682;BME280;34101;53.430;-2.224;2023-05-25T10:05:55;102644.18;;;27.41;32.99
46682;BME280;34101;53.430;-2.224;2023-05-25T10:08:23;102643.12;;;27.38;32.20
46682;BME280;34101;53.430;-2.224;2023-05-25T10:10:50;102642.53;;;26.89;33.22
46682;BME280;34101;53.430;-2.224;2023-05-25T10:13:20;102650.52;;;24.78;36.75
46682;BME280;34101;53.430;-2.224;2023-05-25T10:15:47;102655.86;;;23.57;39.56
46682;BME280;34101;53.430;-2.224;2023-05-25T10:18:24;102652.36;;;24.38;38.64
46682;BME280;34101;53.430;-2.224;2023-05-25T10:20:56;102644.34;;;25.69;36.48
46682;BME280;34101;53.430;-2.224;2023-05-25T10:23:30;102644.25;;;26.74;34.97
46682;BME280;34101;53.430;-2.224;2023-05-25T10:26:02;102643.57;;;26.27;34.72
46682;BME280;34101;53.430;-2.224;2023-05-25T10:28:35;102644.56;;;26.39;34.24
46682;BME280;34101;53.430;-2.224;2023-05-25T10:31:03;102645.23;;;25.84;34.43
46682;BME280;34101;53.430;-2.224;2023-05-25T10:33:32;102642.95;;;25.99;33.91
46682;BME280;34101;53.430;-2.224;2023-05-25T10:35:59;102641.03;;;25.87;35.19
46682;BME280;34101;53.430;-2.224;2023-05-25T10:38:29;102638.01;;;25.81;35.25
46682;BME280;34101;53.430;-2.224;2023-05-25T10:40:57;102638.01;;;25.54;34.62
46682;BME280;34101;53.430;-2.224;2023-05-25T10:43:27;102642.10;;;24.99;35.32
46682;BME280;34101;53.430;-2.224;2023-05-25T10:45:54;102644.98;;;24.44;36.60
46682;BME280;34101;53.430;-2.224;2023-05-25T10:48:22;102644.86;;;24.46;36.97
46682;BME280;34101;53.430;-2.224;2023-05-25T10:50:50;102642.43;;;24.48;36.36
46682;BME280;34101;53.430;-2.224;2023-05-25T10:53:19;102645.68;;;23.94;38.66
46682;BME280;34101;53.430;-2.224;2023-05-25T10:56:01;102648.30;;;23.47;39.01
46682;BME280;34101;53.430;-2.224;2023-05-25T10:58:29;102646.28;;;24.07;37.86
46682;BME280;34101;53.430;-2.224;2023-05-25T11:00:57;102648.36;;;24.36;37.41
46682;BME280;34101;53.430;-2.224;2023-05-25T11:03:49;102643.71;;;24.84;36.11
46682;BME280;34101;53.430;-2.224;2023-05-25T11:06:17;102652.30;;;24.31;39.10
46682;BME280;34101;53.430;-2.224;2023-05-25T11:08:48;102650.62;;;24.18;38.69
46682;BME280;34101;53.430;-2.224;2023-05-25T11:11:16;102652.25;;;23.89;39.12
46682;BME280;34101;53.430;-2.224;2023-05-25T11:13:44;102650.70;;;23.95;38.81
46682;BME280;34101;53.430;-2.224;2023-05-25T11:16:13;102652.11;;;23.62;39.76
46682;BME280;34101;53.430;-2.224;2023-05-25T11:18:40;102653.66;;;23.65;39.46
46682;BME280;34101;53.430;-2.224;2023-05-25T11:21:15;102651.07;;;23.64;39.27
46682;BME280;34101;53.430;-2.224;2023-05-25T11:23:59;102648.24;;;23.55;39.42
46682;BME280;34101;53.430;-2.224;2023-05-25T11:26:29;102646.63;;;23.21;39.97
46682;BME280;34101;53.430;-2.224;2023-05-25T11:28:58;102646.37;;;23.20;40.11
46682;BME280;34101;53.430;-2.224;2023-05-25T11:31:29;102644.47;;;23.19;40.30
46682;BME280;34101;53.430;-2.224;2023-05-25T11:33:57;102644.96;;;23.12;40.87
46682;BME280;34101;53.430;-2.224;2023-05-25T11:36:26;102646.54;;;22.65;42.23
46682;BME280;34101;53.430;-2.224;2023-05-25T11:38:54;102646.48;;;22.48;41.82
46682;BME280;34101;53.430;-2.224;2023-05-25T11:41:22;102647.21;;;22.48;42.24
46682;BME280;34101;53.430;-2.224;2023-05-25T11:43:52;102643.46;;;22.41;42.72
46682;BME280;34101;53.430;-2.224;2023-05-25T11:46:20;102644.28;;;22.40;42.32
46682;BME280;34101;53.430;-2.224;2023-05-25T11:48:50;102645.42;;;22.48;42.19
46682;BME280;34101;53.430;-2.224;2023-05-25T11:51:18;102644.36;;;22.39;42.24
46682;BME280;34101;53.430;-2.224;2023-05-25T11:53:46;102645.10;;;22.20;42.94
46682;BME280;34101;53.430;-2.224;2023-05-25T11:56:14;102645.28;;;22.12;43.04
46682;BME280;34101;53.430;-2.224;2023-05-25T11:58:42;102644.15;;;22.07;43.36
46682;BME280;34101;53.430;-2.224;2023-05-25T12:01:18;102643.87;;;22.10;43.14
46682;BME280;34101;53.430;-2.224;2023-05-25T12:03:46;102639.70;;;21.97;43.42
46682;BME280;34101;53.430;-2.224;2023-05-25T12:06:31;102637.20;;;21.85;43.62
46682;BME280;34101;53.430;-2.224;2023-05-25T12:09:00;102637.72;;;21.99;43.39
46682;BME280;34101;53.430;-2.224;2023-05-25T12:11:28;102637.50;;;21.96;43.46
46682;BME280;34101;53.430;-2.224;2023-05-25T12:13:57;102639.38;;;22.11;43.49
46682;BME280;34101;53.430;-2.224;2023-05-25T12:16:25;102640.17;;;22.09;43.46
46682;BME280;34101;53.430;-2.224;2023-05-25T12:18:53;102637.26;;;21.93;43.46
46682;BME280;34101;53.430;-2.224;2023-05-25T12:21:21;102635.82;;;21.89;43.28
46682;BME280;34101;53.430;-2.224;2023-05-25T12:23:50;102637.30;;;21.86;42.83
46682;BME280;34101;53.430;-2.224;2023-05-25T12:26:18;102636.05;;;21.89;42.97
46682;BME280;34101;53.430;-2.224;2023-05-25T12:29:04;102637.41;;;21.69;43.02
46682;BME280;34101;53.430;-2.224;2023-05-25T12:31:33;102634.44;;;21.71;42.67
46682;BME280;34101;53.430;-2.224;2023-05-25T12:34:02;102637.95;;;21.69;42.66
46682;BME280;34101;53.430;-2.224;2023-05-25T12:36:46;102637.96;;;21.55;42.92
46682;BME280;34101;53.430;-2.224;2023-05-25T12:39:16;102639.99;;;21.53;43.38
46682;BME280;34101;53.430;-2.224;2023-05-25T12:41:45;102643.42;;;21.47;44.01
46682;BME280;34101;53.430;-2.224;2023-05-25T12:44:18;102644.26;;;21.60;42.98
46682;BME280;34101;53.430;-2.224;2023-05-25T12:46:46;102645.37;;;21.59;42.59